sensor_id;sensor_type;location;lat;lon;timestamp;P1;durP1;ratioP1;P2;durP2;ratioP2
61009;SDS011;46897;55.340;86.082;2022-12-07T00:02:09;54.80;;;16.27;;
61009;SDS011;46897;55.340;86.082;2022-12-07T00:04:38;44.08;;;14.80;;
61009;SDS011;46897;55.340;86.082;2022-12-07T00:07:08;47.25;;;14.63;;
61009;SDS011;46897;55.340;86.082;2022-12-07T00:09:37;40.15;;;13.77;;
61009;SDS011;46897;55.340;86.082;2022-12-07T00:12:08;39.53;;;14.48;;
61009;SDS011;46897;55.340;86.082;2022-12-07T00:14:37;44.58;;;15.57;;
61009;SDS011;46897;55.340;86.082;2022-12-07T00:17:08;42.45;;;15.05;;
61009;SDS011;46897;55.340;86.082;2022-12-07T00:19:37;44.80;;;15.07;;
61009;SDS011;46897;55.340;86.082;2022-12-07T00:22:06;45.83;;;13.98;;
61009;SDS011;46897;55.340;86.082;2022-12-07T00:24:35;53.38;;;16.98;;
61009;SDS011;46897;55.340;86.082;2022-12-07T00:27:05;63.42;;;18.15;;
61009;SDS011;46897;55.340;86.082;2022-12-07T00:29:34;57.50;;;16.20;;
61009;SDS011;46897;55.340;86.082;2022-12-07T00:32:05;38.60;;;13.65;;
61009;SDS011;46897;55.340;86.082;2022-12-07T00:34:34;36.55;;;12.35;;
61009;SDS011;46897;55.340;86.082;2022-12-07T00:37:04;38.58;;;13.25;;
61009;SDS011;46897;55.340;86.082;2022-12-07T00:39:33;43.25;;;13.02;;
61009;SDS011;46897;55.340;86.082;2022-12-07T00:42:02;49.75;;;14.90;;
61009;SDS011;46897;55.340;86.082;2022-12-07T00:44:31;38.47;;;12.98;;
61009;SDS011;46897;55.340;86.082;2022-12-07T00:47:01;59.78;;;18.50;;
61009;SDS011;46897;55.340;86.082;2022-12-07T00:49:31;32.92;;;10.93;;
61009;SDS011;46897;55.340;86.082;2022-12-07T00:52:01;28.60;;;10.63;;
61009;SDS011;46897;55.340;86.082;2022-12-07T00:54:30;35.65;;;12.35;;
61009;SDS011;46897;55.340;86.082;2022-12-07T00:56:59;44.25;;;13.82;;
61009;SDS011;46897;55.340;86.082;2022-12-07T00:59:28;34.88;;;13.98;;
61009;SDS011;46897;55.340;86.082;2022-12-07T01:01:59;60.20;;;18.02;;
61009;SDS011;46897;55.340;86.082;2022-12-07T01:04:28;46.50;;;16.05;;
61009;SDS011;46897;55.340;86.082;2022-12-07T01:06:59;43.33;;;14.30;;
61009;SDS011;46897;55.340;86.082;2022-12-07T01:09:28;30.83;;;11.90;;
61009;SDS011;46897;55.340;86.082;2022-12-07T01:11:57;40.47;;;12.75;;
61009;SDS011;46897;55.340;86.082;2022-12-07T01:14:26;51.90;;;15.25;;
61009;SDS011;46897;55.340;86.082;2022-12-07T01:16:56;48.20;;;14.27;;
61009;SDS011;46897;55.340;86.082;2022-12-07T01:19:25;37.33;;;15.40;;
61009;SDS011;46897;55.340;86.082;2022-12-07T01:21:54;49.47;;;14.27;;
61009;SDS011;46897;55.340;86.082;2022-12-07T01:24:25;41.38;;;14.05;;
61009;SDS011;46897;55.340;86.082;2022-12-07T01:26:54;51.53;;;14.40;;
61009;SDS011;46897;55.340;86.082;2022-12-07T01:29:23;51.45;;;15.45;;
61009;SDS011;46897;55.340;86.082;2022-12-07T01:31:53;63.42;;;20.48;;
61009;SDS011;46897;55.340;86.082;2022-12-07T01:34:22;57.75;;;18.95;;
61009;SDS011;46897;55.340;86.082;2022-12-07T01:36:51;51.67;;;16.88;;
61009;SDS011;46897;55.340;86.082;2022-12-07T01:39:20;55.53;;;17.02;;
61009;SDS011;46897;55.340;86.082;2022-12-07T01:41:51;68.20;;;20.70;;
61009;SDS011;46897;55.340;86.082;2022-12-07T01:44:22;54.38;;;17.20;;
61009;SDS011;46897;55.340;86.082;2022-12-07T01:46:54;45.92;;;16.42;;
61009;SDS011;46897;55.340;86.082;2022-12-07T01:49:29;57.88;;;18.05;;
61009;SDS011;46897;55.340;86.082;2022-12-07T01:52:06;56.15;;;16.98;;
61009;SDS011;46897;55.340;86.082;2022-12-07T01:54:42;69.78;;;21.58;;
61009;SDS011;46897;55.340;86.082;2022-12-07T01:57:16;45.90;;;16.52;;
61009;SDS011;46897;55.340;86.082;2022-12-07T01:59:47;46.60;;;13.55;;
61009;SDS011;46897;55.340;86.082;2022-12-07T02:02:20;53.17;;;15.20;;
61009;SDS011;46897;55.340;86.082;2022-12-07T02:04:53;44.83;;;15.80;;
61009;SDS011;46897;55.340;86.082;2022-12-07T02:07:24;52.13;;;18.05;;
61009;SDS011;46897;55.340;86.082;2022-12-07T02:09:55;46.10;;;14.15;;
61009;SDS011;46897;55.340;86.082;2022-12-07T02:12:26;54.10;;;16.17;;
61009;SDS011;46897;55.340;86.082;2022-12-07T02:14:55;54.40;;;17.35;;
61009;SDS011;46897;55.340;86.082;2022-12-07T02:17:25;50.90;;;16.92;;
61009;SDS011;46897;55.340;86.082;2022-12-07T02:20:03;49.95;;;16.10;;
61009;SDS011;46897;55.340;86.082;2022-12-07T02:22:56;62.13;;;19.60;;
61009;SDS011;46897;55.340;86.082;2022-12-07T02:29:12;41.40;;;14.10;;
61009;SDS011;46897;55.340;86.082;2022-12-07T02:31:47;44.03;;;16.67;;
61009;SDS011;46897;55.340;86.082;2022-12-07T02:34:26;53.38;;;17.40;;
61009;SDS011;46897;55.340;86.082;2022-12-07T02:37:00;59.70;;;17.48;;
61009;SDS011;46897;55.340;86.082;2022-12-07T02:39:39;54.92;;;17.58;;
61009;SDS011;46897;55.340;86.082;2022-12-07T02:42:14;45.80;;;15.90;;
61009;SDS011;46897;55.340;86.082;2022-12-07T02:44:50;56.05;;;18.08;;
61009;SDS011;46897;55.340;86.082;2022-12-07T02:47:20;65.22;;;17.00;;
61009;SDS011;46897;55.340;86.082;2022-12-07T02:49:53;52.92;;;16.88;;
61009;SDS011;46897;55.340;86.082;2022-12-07T02:52:22;58.78;;;16.48;;
61009;SDS011;46897;55.340;86.082;2022-12-07T02:54:51;43.13;;;12.88;;
61009;SDS011;46897;55.340;86.082;2022-12-07T02:57:25;57.88;;;19.23;;
61009;SDS011;46897;55.340;86.082;2022-12-07T03:00:07;58.42;;;18.25;;
61009;SDS011;46897;55.340;86.082;2022-12-07T03:02:42;75.40;;;22.95;;
61009;SDS011;46897;55.340;86.082;2022-12-07T03:05:31;59.78;;;19.85;;
61009;SDS011;46897;55.340;86.082;2022-12-07T03:08:13;70.10;;;19.92;;
61009;SDS011;46897;55.340;86.082;2022-12-07T03:10:52;57.90;;;18.38;;
61009;SDS011;46897;55.340;86.082;2022-12-07T03:13:28;57.08;;;17.75;;
61009;SDS011;46897;55.340;86.082;2022-12-07T03:16:04;62.13;;;20.23;;
61009;SDS011;46897;55.340;86.082;2022-12-07T03:18:39;62.22;;;21.20;;
61009;SDS011;46897;55.340;86.082;2022-12-07T03:21:14;47.22;;;17.20;;
61009;SDS011;46897;55.340;86.082;2022-12-07T03:23:47;52.03;;;17.55;;
61009;SDS011;46897;55.340;86.082;2022-12-07T03:26:19;63.67;;;17.40;;
61009;SDS011;46897;55.340;86.082;2022-12-07T03:28:54;73.15;;;20.88;;
61009;SDS011;46897;55.340;86.082;2022-12-07T03:31:28;57.63;;;20.23;;
61009;SDS011;46897;55.340;86.082;2022-12-07T03:34:03;80.85;;;22.13;;
61009;SDS011;46897;55.340;86.082;2022-12-07T03:36:37;64.50;;;21.73;;
61009;SDS011;46897;55.340;86.082;2022-12-07T03:39:13;77.78;;;22.35;;
61009;SDS011;46897;55.340;86.082;2022-12-07T03:41:50;67.93;;;20.77;;
61009;SDS011;46897;55.340;86.082;2022-12-07T03:44:20;79.50;;;21.77;;
61009;SDS011;46897;55.340;86.082;2022-12-07T03:46:55;68.13;;;21.70;;
61009;SDS011;46897;55.340;86.082;2022-12-07T03:49:34;61.67;;;20.45;;
61009;SDS011;46897;55.340;86.082;2022-12-07T03:52:12;53.15;;;15.73;;
61009;SDS011;46897;55.340;86.082;2022-12-07T03:54:49;63.65;;;21.48;;
61009;SDS011;46897;55.340;86.082;2022-12-07T03:57:25;59.00;;;21.08;;
61009;SDS011;46897;55.340;86.082;2022-12-07T03:59:57;58.83;;;16.38;;
61009;SDS011;46897;55.340;86.082;2022-12-07T04:02:29;53.78;;;18.27;;
61009;SDS011;46897;55.340;86.082;2022-12-07T04:04:59;46.85;;;15.38;;
61009;SDS011;46897;55.340;86.082;2022-12-07T04:07:28;51.05;;;16.92;;
61009;SDS011;46897;55.340;86.082;2022-12-07T04:09:58;48.15;;;16.92;;
61009;SDS011;46897;55.340;86.082;2022-12-07T04:12:27;44.33;;;16.10;;
61009;SDS011;46897;55.340;86.082;2022-12-07T04:14:57;63.08;;;17.25;;
61009;SDS011;46897;55.340;86.082;2022-12-07T04:17:26;57.58;;;19.38;;
61009;SDS011;46897;55.340;86.082;2022-12-07T04:19:57;52.65;;;17.73;;
61009;SDS011;46897;55.340;86.082;2022-12-07T04:22:27;56.30;;;18.48;;
61009;SDS011;46897;55.340;86.082;2022-12-07T04:24:57;77.47;;;23.80;;
61009;SDS011;46897;55.340;86.082;2022-12-07T04:27:27;59.35;;;16.40;;
61009;SDS011;46897;55.340;86.082;2022-12-07T04:29:57;72.30;;;22.50;;
61009;SDS011;46897;55.340;86.082;2022-12-07T04:32:29;73.68;;;22.70;;
61009;SDS011;46897;55.340;86.082;2022-12-07T04:35:02;63.33;;;19.58;;
61009;SDS011;46897;55.340;86.082;2022-12-07T04:37:32;58.63;;;17.27;;
61009;SDS011;46897;55.340;86.082;2022-12-07T04:40:10;63.28;;;16.92;;
61009;SDS011;46897;55.340;86.082;2022-12-07T04:42:42;61.58;;;19.25;;
61009;SDS011;46897;55.340;86.082;2022-12-07T04:45:11;38.15;;;13.95;;
61009;SDS011;46897;55.340;86.082;2022-12-07T04:47:40;51.90;;;16.20;;
61009;SDS011;46897;55.340;86.082;2022-12-07T04:50:11;49.40;;;16.77;;
61009;SDS011;46897;55.340;86.082;2022-12-07T04:52:40;47.67;;;17.67;;
61009;SDS011;46897;55.340;86.082;2022-12-07T04:55:09;45.03;;;16.52;;
61009;SDS011;46897;55.340;86.082;2022-12-07T04:57:39;72.72;;;20.35;;
61009;SDS011;46897;55.340;86.082;2022-12-07T05:00:09;52.25;;;15.52;;
61009;SDS011;46897;55.340;86.082;2022-12-07T05:02:39;50.60;;;18.50;;
61009;SDS011;46897;55.340;86.082;2022-12-07T05:05:08;59.10;;;17.50;;
61009;SDS011;46897;55.340;86.082;2022-12-07T05:07:39;49.10;;;16.92;;
61009;SDS011;46897;55.340;86.082;2022-12-07T05:10:09;61.67;;;19.10;;
61009;SDS011;46897;55.340;86.082;2022-12-07T05:12:38;58.85;;;19.40;;
61009;SDS011;46897;55.340;86.082;2022-12-07T05:15:08;69.63;;;21.38;;
61009;SDS011;46897;55.340;86.082;2022-12-07T05:17:38;52.55;;;18.52;;
61009;SDS011;46897;55.340;86.082;2022-12-07T05:20:07;50.30;;;17.10;;
61009;SDS011;46897;55.340;86.082;2022-12-07T05:22:39;70.82;;;20.60;;
61009;SDS011;46897;55.340;86.082;2022-12-07T05:25:08;58.28;;;18.00;;
61009;SDS011;46897;55.340;86.082;2022-12-07T05:27:38;58.22;;;18.92;;
61009;SDS011;46897;55.340;86.082;2022-12-07T05:30:07;55.30;;;17.77;;
61009;SDS011;46897;55.340;86.082;2022-12-07T05:32:37;53.47;;;20.15;;
61009;SDS011;46897;55.340;86.082;2022-12-07T05:35:09;53.20;;;18.88;;
61009;SDS011;46897;55.340;86.082;2022-12-07T05:37:40;53.28;;;16.30;;
61009;SDS011;46897;55.340;86.082;2022-12-07T05:40:09;36.10;;;12.43;;
61009;SDS011;46897;55.340;86.082;2022-12-07T05:42:39;30.23;;;13.13;;
61009;SDS011;46897;55.340;86.082;2022-12-07T05:45:10;39.60;;;13.48;;
61009;SDS011;46897;55.340;86.082;2022-12-07T05:47:40;34.80;;;12.02;;
61009;SDS011;46897;55.340;86.082;2022-12-07T05:50:09;41.28;;;13.10;;
61009;SDS011;46897;55.340;86.082;2022-12-07T05:52:40;34.00;;;11.98;;
61009;SDS011;46897;55.340;86.082;2022-12-07T05:55:10;34.15;;;11.48;;
61009;SDS011;46897;55.340;86.082;2022-12-07T05:57:40;41.53;;;13.05;;
61009;SDS011;46897;55.340;86.082;2022-12-07T06:00:30;29.40;;;10.98;;
61009;SDS011;46897;55.340;86.082;2022-12-07T06:02:58;33.42;;;10.30;;
61009;SDS011;46897;55.340;86.082;2022-12-07T06:05:27;31.63;;;9.27;;
61009;SDS011;46897;55.340;86.082;2022-12-07T06:07:58;33.97;;;11.43;;
61009;SDS011;46897;55.340;86.082;2022-12-07T06:10:31;45.03;;;12.48;;
61009;SDS011;46897;55.340;86.082;2022-12-07T06:13:01;40.13;;;12.85;;
61009;SDS011;46897;55.340;86.082;2022-12-07T06:15:29;47.17;;;13.82;;
61009;SDS011;46897;55.340;86.082;2022-12-07T06:17:58;29.33;;;10.90;;
61009;SDS011;46897;55.340;86.082;2022-12-07T06:20:28;35.97;;;13.40;;
61009;SDS011;46897;55.340;86.082;2022-12-07T06:22:58;35.13;;;11.32;;
61009;SDS011;46897;55.340;86.082;2022-12-07T06:25:28;33.42;;;11.93;;
61009;SDS011;46897;55.340;86.082;2022-12-07T06:27:58;44.55;;;14.35;;
61009;SDS011;46897;55.340;86.082;2022-12-07T06:30:27;38.30;;;12.25;;
61009;SDS011;46897;55.340;86.082;2022-12-07T06:32:57;42.03;;;13.52;;
61009;SDS011;46897;55.340;86.082;2022-12-07T06:35:26;31.65;;;13.45;;
61009;SDS011;46897;55.340;86.082;2022-12-07T06:37:55;33.33;;;12.15;;
61009;SDS011;46897;55.340;86.082;2022-12-07T06:40:26;32.97;;;12.52;;
61009;SDS011;46897;55.340;86.082;2022-12-07T06:42:55;36.15;;;12.73;;
61009;SDS011;46897;55.340;86.082;2022-12-07T06:45:24;40.50;;;11.43;;
61009;SDS011;46897;55.340;86.082;2022-12-07T06:47:53;41.22;;;13.00;;
61009;SDS011;46897;55.340;86.082;2022-12-07T06:50:25;34.83;;;12.20;;
61009;SDS011;46897;55.340;86.082;2022-12-07T06:52:55;36.95;;;13.80;;
61009;SDS011;46897;55.340;86.082;2022-12-07T06:55:26;43.53;;;12.18;;
61009;SDS011;46897;55.340;86.082;2022-12-07T06:57:55;44.55;;;14.20;;
61009;SDS011;46897;55.340;86.082;2022-12-07T07:00:24;39.60;;;12.27;;
61009;SDS011;46897;55.340;86.082;2022-12-07T07:02:54;41.60;;;15.35;;
61009;SDS011;46897;55.340;86.082;2022-12-07T07:05:23;25.35;;;10.70;;
61009;SDS011;46897;55.340;86.082;2022-12-07T07:07:52;36.40;;;12.43;;
61009;SDS011;46897;55.340;86.082;2022-12-07T07:10:44;39.38;;;12.35;;
61009;SDS011;46897;55.340;86.082;2022-12-07T07:13:13;39.33;;;13.40;;
61009;SDS011;46897;55.340;86.082;2022-12-07T07:15:43;46.13;;;13.55;;
61009;SDS011;46897;55.340;86.082;2022-12-07T07:18:12;47.50;;;14.45;;
61009;SDS011;46897;55.340;86.082;2022-12-07T07:20:41;49.70;;;16.83;;
61009;SDS011;46897;55.340;86.082;2022-12-07T07:23:11;48.35;;;16.27;;
61009;SDS011;46897;55.340;86.082;2022-12-07T07:25:40;36.22;;;13.32;;
61009;SDS011;46897;55.340;86.082;2022-12-07T07:28:13;42.97;;;16.40;;
61009;SDS011;46897;55.340;86.082;2022-12-07T07:30:43;47.03;;;14.60;;
61009;SDS011;46897;55.340;86.082;2022-12-07T07:33:13;42.80;;;13.82;;
61009;SDS011;46897;55.340;86.082;2022-12-07T07:35:45;33.88;;;12.40;;
61009;SDS011;46897;55.340;86.082;2022-12-07T07:38:14;40.55;;;14.23;;
61009;SDS011;46897;55.340;86.082;2022-12-07T07:40:46;47.03;;;16.30;;
61009;SDS011;46897;55.340;86.082;2022-12-07T07:43:16;42.40;;;13.65;;
61009;SDS011;46897;55.340;86.082;2022-12-07T07:45:47;46.97;;;14.90;;
61009;SDS011;46897;55.340;86.082;2022-12-07T07:48:16;25.50;;;7.72;;
61009;SDS011;46897;55.340;86.082;2022-12-07T07:50:49;47.10;;;13.85;;
61009;SDS011;46897;55.340;86.082;2022-12-07T07:53:18;37.55;;;14.05;;
61009;SDS011;46897;55.340;86.082;2022-12-07T07:55:51;35.70;;;13.43;;
61009;SDS011;46897;55.340;86.082;2022-12-07T07:58:23;43.35;;;14.93;;
61009;SDS011;46897;55.340;86.082;2022-12-07T08:00:53;34.53;;;11.98;;
61009;SDS011;46897;55.340;86.082;2022-12-07T08:03:22;46.08;;;13.25;;
61009;SDS011;46897;55.340;86.082;2022-12-07T08:05:51;40.58;;;14.52;;
61009;SDS011;46897;55.340;86.082;2022-12-07T08:08:22;41.90;;;14.07;;
61009;SDS011;46897;55.340;86.082;2022-12-07T08:10:52;39.33;;;13.52;;
61009;SDS011;46897;55.340;86.082;2022-12-07T08:13:24;52.13;;;14.88;;
61009;SDS011;46897;55.340;86.082;2022-12-07T08:15:57;39.05;;;14.07;;
61009;SDS011;46897;55.340;86.082;2022-12-07T08:18:28;56.97;;;17.63;;
61009;SDS011;46897;55.340;86.082;2022-12-07T08:20:58;37.30;;;14.10;;
61009;SDS011;46897;55.340;86.082;2022-12-07T08:23:28;32.95;;;11.68;;
61009;SDS011;46897;55.340;86.082;2022-12-07T08:26:07;34.40;;;11.95;;
61009;SDS011;46897;55.340;86.082;2022-12-07T08:28:41;40.85;;;13.40;;
61009;SDS011;46897;55.340;86.082;2022-12-07T08:31:12;33.90;;;13.23;;
61009;SDS011;46897;55.340;86.082;2022-12-07T08:33:44;45.83;;;14.45;;
61009;SDS011;46897;55.340;86.082;2022-12-07T08:36:14;43.35;;;15.55;;
61009;SDS011;46897;55.340;86.082;2022-12-07T08:38:45;39.20;;;13.30;;
61009;SDS011;46897;55.340;86.082;2022-12-07T08:41:35;38.20;;;12.55;;
61009;SDS011;46897;55.340;86.082;2022-12-07T08:44:06;48.17;;;13.07;;
61009;SDS011;46897;55.340;86.082;2022-12-07T08:46:36;50.05;;;17.92;;
61009;SDS011;46897;55.340;86.082;2022-12-07T08:49:09;54.03;;;15.82;;
61009;SDS011;46897;55.340;86.082;2022-12-07T08:51:41;84.07;;;23.90;;
61009;SDS011;46897;55.340;86.082;2022-12-07T08:54:11;66.65;;;19.60;;
61009;SDS011;46897;55.340;86.082;2022-12-07T08:56:44;69.13;;;19.88;;
61009;SDS011;46897;55.340;86.082;2022-12-07T08:59:27;58.45;;;19.23;;
61009;SDS011;46897;55.340;86.082;2022-12-07T09:01:57;57.90;;;18.77;;
61009;SDS011;46897;55.340;86.082;2022-12-07T09:04:26;44.47;;;16.55;;
61009;SDS011;46897;55.340;86.082;2022-12-07T09:06:56;51.17;;;18.08;;
61009;SDS011;46897;55.340;86.082;2022-12-07T09:09:26;56.15;;;15.10;;
61009;SDS011;46897;55.340;86.082;2022-12-07T09:11:55;41.53;;;14.40;;
61009;SDS011;46897;55.340;86.082;2022-12-07T09:14:24;61.75;;;17.88;;
61009;SDS011;46897;55.340;86.082;2022-12-07T09:17:04;46.58;;;15.02;;
61009;SDS011;46897;55.340;86.082;2022-12-07T09:19:34;56.28;;;16.35;;
61009;SDS011;46897;55.340;86.082;2022-12-07T09:22:04;65.13;;;18.08;;
61009;SDS011;46897;55.340;86.082;2022-12-07T09:24:37;79.70;;;20.27;;
61009;SDS011;46897;55.340;86.082;2022-12-07T09:27:06;55.28;;;18.60;;
61009;SDS011;46897;55.340;86.082;2022-12-07T09:29:39;62.05;;;17.15;;
61009;SDS011;46897;55.340;86.082;2022-12-07T09:32:13;54.63;;;16.88;;
61009;SDS011;46897;55.340;86.082;2022-12-07T09:34:42;60.05;;;18.15;;
61009;SDS011;46897;55.340;86.082;2022-12-07T09:37:12;68.63;;;20.65;;
61009;SDS011;46897;55.340;86.082;2022-12-07T09:39:41;53.38;;;17.13;;
61009;SDS011;46897;55.340;86.082;2022-12-07T09:42:23;60.53;;;18.15;;
61009;SDS011;46897;55.340;86.082;2022-12-07T09:44:59;72.93;;;22.35;;
61009;SDS011;46897;55.340;86.082;2022-12-07T09:47:30;72.22;;;21.50;;
61009;SDS011;46897;55.340;86.082;2022-12-07T09:50:07;69.53;;;19.10;;
61009;SDS011;46897;55.340;86.082;2022-12-07T09:52:42;64.95;;;22.73;;
61009;SDS011;46897;55.340;86.082;2022-12-07T09:55:15;81.22;;;24.42;;
61009;SDS011;46897;55.340;86.082;2022-12-07T09:57:48;62.63;;;19.17;;
61009;SDS011;46897;55.340;86.082;2022-12-07T10:00:20;77.30;;;24.23;;
61009;SDS011;46897;55.340;86.082;2022-12-07T10:02:53;63.10;;;22.23;;
61009;SDS011;46897;55.340;86.082;2022-12-07T10:05:27;99.20;;;27.55;;
61009;SDS011;46897;55.340;86.082;2022-12-07T10:10:40;81.10;;;22.77;;
61009;SDS011;46897;55.340;86.082;2022-12-07T10:13:22;109.93;;;36.65;;
61009;SDS011;46897;55.340;86.082;2022-12-07T10:16:27;84.43;;;25.90;;
61009;SDS011;46897;55.340;86.082;2022-12-07T10:22:03;92.68;;;28.17;;
61009;SDS011;46897;55.340;86.082;2022-12-07T10:24:38;109.97;;;31.58;;
61009;SDS011;46897;55.340;86.082;2022-12-07T10:27:25;101.18;;;29.67;;
61009;SDS011;46897;55.340;86.082;2022-12-07T10:30:03;71.50;;;23.65;;
61009;SDS011;46897;55.340;86.082;2022-12-07T10:32:46;87.93;;;25.58;;
61009;SDS011;46897;55.340;86.082;2022-12-07T10:35:22;74.22;;;22.65;;
61009;SDS011;46897;55.340;86.082;2022-12-07T10:40:28;73.20;;;23.20;;
61009;SDS011;46897;55.340;86.082;2022-12-07T10:43:15;53.13;;;22.38;;
61009;SDS011;46897;55.340;86.082;2022-12-07T10:46:01;68.57;;;26.52;;
61009;SDS011;46897;55.340;86.082;2022-12-07T10:48:58;93.30;;;29.48;;
61009;SDS011;46897;55.340;86.082;2022-12-07T10:51:41;99.38;;;32.88;;
61009;SDS011;46897;55.340;86.082;2022-12-07T10:54:16;85.07;;;28.05;;
61009;SDS011;46897;55.340;86.082;2022-12-07T10:56:58;79.32;;;27.65;;
61009;SDS011;46897;55.340;86.082;2022-12-07T11:02:44;66.32;;;22.58;;
61009;SDS011;46897;55.340;86.082;2022-12-07T11:05:39;54.45;;;18.70;;
61009;SDS011;46897;55.340;86.082;2022-12-07T11:08:14;52.20;;;17.30;;
61009;SDS011;46897;55.340;86.082;2022-12-07T11:10:53;59.15;;;17.90;;
61009;SDS011;46897;55.340;86.082;2022-12-07T11:13:29;70.22;;;21.08;;
61009;SDS011;46897;55.340;86.082;2022-12-07T11:16:21;57.85;;;17.08;;
61009;SDS011;46897;55.340;86.082;2022-12-07T11:19:12;56.55;;;16.92;;
61009;SDS011;46897;55.340;86.082;2022-12-07T11:21:57;45.40;;;16.63;;
61009;SDS011;46897;55.340;86.082;2022-12-07T11:24:31;58.80;;;18.38;;
61009;SDS011;46897;55.340;86.082;2022-12-07T11:27:13;70.20;;;20.75;;
61009;SDS011;46897;55.340;86.082;2022-12-07T11:32:45;72.18;;;20.98;;
61009;SDS011;46897;55.340;86.082;2022-12-07T11:38:28;47.75;;;15.57;;
61009;SDS011;46897;55.340;86.082;2022-12-07T11:41:06;60.28;;;17.48;;
61009;SDS011;46897;55.340;86.082;2022-12-07T11:46:58;56.55;;;16.90;;
61009;SDS011;46897;55.340;86.082;2022-12-07T11:49:40;48.63;;;16.70;;
61009;SDS011;46897;55.340;86.082;2022-12-07T11:52:18;49.00;;;16.42;;
61009;SDS011;46897;55.340;86.082;2022-12-07T11:55:16;35.28;;;15.05;;
61009;SDS011;46897;55.340;86.082;2022-12-07T11:57:51;61.25;;;17.02;;
61009;SDS011;46897;55.340;86.082;2022-12-07T12:00:29;63.78;;;17.23;;
61009;SDS011;46897;55.340;86.082;2022-12-07T12:03:24;40.42;;;13.30;;
61009;SDS011;46897;55.340;86.082;2022-12-07T12:06:00;39.67;;;14.60;;
61009;SDS011;46897;55.340;86.082;2022-12-07T12:08:35;51.65;;;16.55;;
61009;SDS011;46897;55.340;86.082;2022-12-07T12:11:36;45.17;;;15.35;;
61009;SDS011;46897;55.340;86.082;2022-12-07T12:14:43;53.20;;;13.57;;
61009;SDS011;46897;55.340;86.082;2022-12-07T12:20:26;47.30;;;14.30;;
61009;SDS011;46897;55.340;86.082;2022-12-07T12:22:58;39.90;;;14.07;;
61009;SDS011;46897;55.340;86.082;2022-12-07T12:25:36;39.75;;;15.07;;
61009;SDS011;46897;55.340;86.082;2022-12-07T12:28:20;57.30;;;18.00;;
61009;SDS011;46897;55.340;86.082;2022-12-07T12:31:09;51.33;;;17.08;;
61009;SDS011;46897;55.340;86.082;2022-12-07T12:33:44;55.03;;;16.02;;
61009;SDS011;46897;55.340;86.082;2022-12-07T12:36:22;67.05;;;18.98;;
61009;SDS011;46897;55.340;86.082;2022-12-07T12:39:08;62.38;;;20.02;;
61009;SDS011;46897;55.340;86.082;2022-12-07T12:41:54;33.22;;;13.38;;
61009;SDS011;46897;55.340;86.082;2022-12-07T12:44:41;62.55;;;22.75;;
61009;SDS011;46897;55.340;86.082;2022-12-07T12:47:39;79.47;;;23.98;;
61009;SDS011;46897;55.340;86.082;2022-12-07T12:52:56;87.18;;;25.58;;
61009;SDS011;46897;55.340;86.082;2022-12-07T12:55:45;94.05;;;28.67;;
61009;SDS011;46897;55.340;86.082;2022-12-07T12:58:42;69.45;;;22.15;;
61009;SDS011;46897;55.340;86.082;2022-12-07T13:04:23;82.35;;;25.38;;
61009;SDS011;46897;55.340;86.082;2022-12-07T13:07:12;96.55;;;29.10;;
61009;SDS011;46897;55.340;86.082;2022-12-07T13:10:04;85.85;;;23.98;;
61009;SDS011;46897;55.340;86.082;2022-12-07T13:12:55;60.65;;;18.75;;
61009;SDS011;46897;55.340;86.082;2022-12-07T13:15:32;60.83;;;19.73;;
61009;SDS011;46897;55.340;86.082;2022-12-07T13:21:39;43.63;;;14.38;;
61009;SDS011;46897;55.340;86.082;2022-12-07T13:24:11;54.83;;;18.23;;
61009;SDS011;46897;55.340;86.082;2022-12-07T13:26:42;65.18;;;17.73;;
61009;SDS011;46897;55.340;86.082;2022-12-07T13:29:13;49.90;;;16.77;;
61009;SDS011;46897;55.340;86.082;2022-12-07T13:31:43;41.83;;;14.25;;
61009;SDS011;46897;55.340;86.082;2022-12-07T13:34:39;43.03;;;14.82;;
61009;SDS011;46897;55.340;86.082;2022-12-07T13:37:21;34.78;;;13.90;;
61009;SDS011;46897;55.340;86.082;2022-12-07T13:40:12;52.63;;;16.02;;
61009;SDS011;46897;55.340;86.082;2022-12-07T13:42:56;53.95;;;19.08;;
61009;SDS011;46897;55.340;86.082;2022-12-07T13:45:27;51.10;;;20.33;;
61009;SDS011;46897;55.340;86.082;2022-12-07T13:48:11;53.17;;;17.45;;
61009;SDS011;46897;55.340;86.082;2022-12-07T13:50:48;48.60;;;17.05;;
61009;SDS011;46897;55.340;86.082;2022-12-07T13:53:23;42.72;;;14.35;;
61009;SDS011;46897;55.340;86.082;2022-12-07T13:55:57;40.75;;;12.52;;
61009;SDS011;46897;55.340;86.082;2022-12-07T13:58:29;29.75;;;12.15;;
61009;SDS011;46897;55.340;86.082;2022-12-07T14:01:03;40.42;;;14.38;;
61009;SDS011;46897;55.340;86.082;2022-12-07T14:03:35;36.85;;;13.70;;
61009;SDS011;46897;55.340;86.082;2022-12-07T14:06:12;38.53;;;13.15;;
61009;SDS011;46897;55.340;86.082;2022-12-07T14:08:47;36.78;;;14.88;;
61009;SDS011;46897;55.340;86.082;2022-12-07T14:11:28;43.67;;;15.27;;
61009;SDS011;46897;55.340;86.082;2022-12-07T14:14:11;33.88;;;13.05;;
61009;SDS011;46897;55.340;86.082;2022-12-07T14:16:56;49.63;;;13.98;;
61009;SDS011;46897;55.340;86.082;2022-12-07T14:19:46;25.27;;;9.85;;
61009;SDS011;46897;55.340;86.082;2022-12-07T14:25:45;29.13;;;9.68;;
61009;SDS011;46897;55.340;86.082;2022-12-07T14:28:26;32.45;;;11.25;;
61009;SDS011;46897;55.340;86.082;2022-12-07T14:30:57;33.63;;;12.70;;
61009;SDS011;46897;55.340;86.082;2022-12-07T14:33:29;39.83;;;13.13;;
61009;SDS011;46897;55.340;86.082;2022-12-07T14:36:00;39.72;;;13.00;;
61009;SDS011;46897;55.340;86.082;2022-12-07T14:38:32;46.60;;;15.45;;
61009;SDS011;46897;55.340;86.082;2022-12-07T14:41:02;29.80;;;10.82;;
61009;SDS011;46897;55.340;86.082;2022-12-07T14:43:50;48.28;;;15.90;;
61009;SDS011;46897;55.340;86.082;2022-12-07T14:46:40;55.10;;;17.02;;
61009;SDS011;46897;55.340;86.082;2022-12-07T14:49:10;34.83;;;13.30;;
61009;SDS011;46897;55.340;86.082;2022-12-07T14:52:00;42.28;;;17.45;;
61009;SDS011;46897;55.340;86.082;2022-12-07T14:54:51;36.42;;;15.15;;
61009;SDS011;46897;55.340;86.082;2022-12-07T14:57:21;67.65;;;19.27;;
61009;SDS011;46897;55.340;86.082;2022-12-07T14:59:50;56.15;;;17.40;;
61009;SDS011;46897;55.340;86.082;2022-12-07T15:02:20;59.92;;;18.33;;
61009;SDS011;46897;55.340;86.082;2022-12-07T15:04:49;61.40;;;18.02;;
61009;SDS011;46897;55.340;86.082;2022-12-07T15:07:19;63.67;;;19.27;;
61009;SDS011;46897;55.340;86.082;2022-12-07T15:09:52;57.92;;;18.75;;
61009;SDS011;46897;55.340;86.082;2022-12-07T15:12:22;98.90;;;23.88;;
61009;SDS011;46897;55.340;86.082;2022-12-07T15:14:51;64.63;;;20.38;;
61009;SDS011;46897;55.340;86.082;2022-12-07T15:17:21;84.90;;;28.02;;
61009;SDS011;46897;55.340;86.082;2022-12-07T15:19:57;79.60;;;25.00;;
61009;SDS011;46897;55.340;86.082;2022-12-07T15:22:27;85.75;;;21.65;;
61009;SDS011;46897;55.340;86.082;2022-12-07T15:25:05;67.25;;;23.73;;
61009;SDS011;46897;55.340;86.082;2022-12-07T15:27:35;86.93;;;28.27;;
61009;SDS011;46897;55.340;86.082;2022-12-07T15:30:05;70.03;;;22.10;;